createdAt,value
2022-11-16T00:01:35.295Z,38.17
2022-11-16T00:04:03.105Z,39.05
2022-11-16T00:06:30.405Z,39.50
2022-11-16T00:09:00.136Z,36.70
2022-11-16T00:11:26.980Z,37.73
2022-11-16T00:13:53.836Z,44.72
2022-11-16T00:16:20.632Z,35.75
2022-11-16T00:18:47.431Z,35.55
2022-11-16T00:21:14.136Z,35.95
2022-11-16T00:23:41.289Z,37.23
2022-11-16T00:26:12.395Z,36.58
2022-11-16T00:28:39.346Z,37.20
2022-11-16T00:31:07.477Z,39.72
2022-11-16T00:33:34.509Z,34.70
2022-11-16T00:36:03.218Z,34.80
2022-11-16T00:38:30.383Z,39.42
2022-11-16T00:40:57.397Z,31.35
2022-11-16T00:43:24.656Z,31.75
2022-11-16T00:45:51.444Z,38.97
2022-11-16T00:48:18.581Z,41.77
2022-11-16T00:50:46.502Z,46.40
2022-11-16T00:53:15.858Z,40.03
2022-11-16T00:55:44.920Z,38.45
2022-11-16T00:58:13.302Z,38.88
2022-11-16T01:00:43.178Z,45.63
2022-11-16T01:03:10.722Z,43.67
2022-11-16T01:05:38.082Z,44.70
2022-11-16T01:08:05.349Z,47.05
2022-11-16T01:10:32.919Z,46.47
2022-11-16T01:12:59.965Z,48.27
2022-11-16T01:15:28.079Z,48.28
2022-11-16T01:17:56.768Z,40.53
2022-11-16T01:20:29.231Z,45.63
2022-11-16T01:22:56.682Z,44.08
2022-11-16T01:25:23.520Z,45.90
2022-11-16T01:27:50.431Z,48.67
2022-11-16T01:30:28.124Z,49.95
2022-11-16T01:33:02.694Z,46.20
2022-11-16T01:35:29.574Z,49.28
2022-11-16T01:37:56.382Z,50.60
2022-11-16T01:40:23.371Z,49.38
2022-11-16T01:42:50.273Z,53.03
2022-11-16T01:45:21.501Z,47.95
2022-11-16T01:47:53.830Z,53.90
2022-11-16T01:50:24.492Z,44.17
2022-11-16T01:53:04.555Z,54.97
2022-11-16T01:55:41.057Z,53.33
2022-11-16T01:58:26.354Z,54.05
2022-11-16T02:00:59.225Z,56.45
2022-11-16T02:03:41.365Z,51.90
2022-11-16T02:06:27.208Z,58.80
2022-11-16T02:09:43.293Z,53.95
2022-11-16T02:13:07.305Z,57.95
2022-11-16T02:15:49.646Z,55.53
2022-11-16T02:18:41.636Z,49.23
2022-11-16T02:21:30.812Z,51.58
2022-11-16T02:24:42.585Z,57.17
2022-11-16T02:27:49.634Z,58.28
2022-11-16T02:30:18.980Z,59.03
2022-11-16T02:33:03.075Z,52.23
2022-11-16T02:35:52.566Z,58.63
2022-11-16T02:38:27.197Z,57.15
2022-11-16T02:41:19.136Z,53.03
2022-11-16T02:43:52.667Z,56.72
2022-11-16T02:46:29.374Z,55.37
2022-11-16T02:49:01.055Z,61.97
2022-11-16T02:51:29.530Z,62.05
2022-11-16T02:54:03.267Z,46.53
2022-11-16T02:56:56.678Z,52.42
2022-11-16T02:59:33.575Z,43.80
2022-11-16T03:02:17.527Z,41.83
2022-11-16T03:04:49.346Z,49.45
2022-11-16T03:07:21.362Z,42.38
2022-11-16T03:09:50.519Z,42.72
2022-11-16T03:12:22.672Z,42.53
2022-11-16T03:14:54.767Z,57.30
2022-11-16T03:17:32.148Z,44.47
2022-11-16T03:20:03.916Z,45.28
2022-11-16T03:22:39.660Z,45.83
2022-11-16T03:25:09.178Z,43.43
2022-11-16T03:27:45.234Z,47.55
2022-11-16T03:30:23.344Z,47.83
2022-11-16T03:33:07.069Z,46.25
2022-11-16T03:35:56.612Z,43.88
2022-11-16T03:38:26.641Z,43.73
2022-11-16T03:40:58.798Z,38.95
2022-11-16T03:43:27.352Z,48.35
2022-11-16T03:45:56.101Z,40.58
2022-11-16T03:48:24.269Z,43.05
2022-11-16T03:50:52.711Z,42.97
2022-11-16T03:53:20.340Z,48.20
2022-11-16T03:55:49.904Z,40.15
2022-11-16T03:58:17.860Z,43.05
2022-11-16T04:00:45.852Z,37.63
2022-11-16T04:03:12.912Z,40.50
2022-11-16T04:05:40.117Z,42.85
2022-11-16T04:08:15.105Z,45.53
2022-11-16T04:10:44.472Z,41.28
2022-11-16T04:13:14.502Z,41.83
2022-11-16T04:15:41.398Z,48.27
2022-11-16T04:18:11.212Z,43.38
2022-11-16T04:20:38.100Z,42.50
2022-11-16T04:23:07.416Z,49.38
2022-11-16T04:25:38.366Z,44.50
2022-11-16T04:28:13.886Z,45.73
2022-11-16T04:30:50.832Z,51.60
2022-11-16T04:33:19.285Z,50.42
2022-11-16T04:35:46.522Z,47.97
2022-11-16T04:38:14.598Z,47.55
2022-11-16T04:40:41.397Z,43.63
2022-11-16T04:43:11.169Z,48.25
2022-11-16T04:45:40.853Z,46.70
2022-11-16T04:48:10.655Z,43.60
2022-11-16T04:50:38.205Z,43.53
2022-11-16T04:53:05.895Z,40.97
2022-11-16T04:55:38.912Z,53.78
2022-11-16T04:58:06.054Z,44.00
2022-11-16T05:00:32.958Z,41.55
2022-11-16T05:03:01.825Z,56.25
2022-11-16T05:05:29.856Z,43.90
2022-11-16T05:07:58.447Z,44.15
2022-11-16T05:10:28.520Z,43.45
2022-11-16T05:12:56.227Z,45.97
2022-11-16T05:15:24.149Z,51.30
2022-11-16T05:17:51.008Z,52.80
2022-11-16T05:20:21.810Z,45.35
2022-11-16T05:22:54.648Z,48.05
2022-11-16T05:25:23.969Z,45.78
2022-11-16T05:27:51.467Z,45.97
2022-11-16T05:30:18.751Z,53.37
2022-11-16T05:32:45.649Z,53.28
2022-11-16T05:35:14.550Z,48.13
2022-11-16T05:37:42.683Z,51.10
2022-11-16T05:40:10.529Z,51.40
2022-11-16T05:42:43.839Z,52.30
2022-11-16T05:45:10.739Z,50.33
2022-11-16T05:47:37.660Z,48.15
2022-11-16T05:50:04.873Z,48.53
2022-11-16T05:52:38.053Z,84.28
2022-11-16T05:55:08.899Z,50.07
2022-11-16T05:57:41.783Z,56.35
2022-11-16T06:00:09.927Z,64.97
2022-11-16T06:02:45.413Z,51.15
2022-11-16T06:05:20.162Z,59.55
2022-11-16T06:07:48.097Z,59.23
2022-11-16T06:10:15.420Z,61.53
2022-11-16T06:12:44.344Z,61.78
2022-11-16T06:15:11.249Z,49.05
2022-11-16T06:17:38.096Z,55.40
2022-11-16T06:20:07.085Z,52.50
2022-11-16T06:22:37.079Z,59.33
2022-11-16T06:25:05.646Z,57.15
2022-11-16T06:27:37.704Z,50.42
2022-11-16T06:30:05.020Z,55.28
2022-11-16T06:32:33.591Z,47.20
2022-11-16T06:35:00.726Z,58.70
2022-11-16T06:37:28.079Z,58.28
2022-11-16T06:39:55.818Z,67.10
2022-11-16T06:42:23.764Z,56.83
2022-11-16T06:44:51.748Z,50.67
2022-11-16T06:47:22.731Z,45.20
2022-11-16T06:49:49.639Z,52.10
2022-11-16T06:52:21.092Z,53.22
2022-11-16T06:54:48.259Z,57.28
2022-11-16T06:57:15.103Z,62.43
2022-11-16T06:59:41.907Z,57.90
2022-11-16T07:02:11.103Z,50.20
2022-11-16T07:04:38.802Z,49.25
2022-11-16T07:07:05.761Z,55.90
2022-11-16T07:09:34.650Z,53.37
2022-11-16T07:12:01.427Z,48.20
2022-11-16T07:14:34.772Z,51.10
2022-11-16T07:17:09.097Z,44.17
2022-11-16T07:19:36.521Z,44.80
2022-11-16T07:22:03.773Z,41.47
2022-11-16T07:24:30.871Z,41.08
2022-11-16T07:26:57.855Z,36.17
2022-11-16T07:29:27.101Z,36.13
2022-11-16T07:32:22.864Z,40.08
2022-11-16T07:35:12.233Z,34.30
2022-11-16T07:37:39.832Z,35.28
2022-11-16T07:40:08.964Z,35.78
2022-11-16T07:42:38.334Z,31.05
2022-11-16T07:45:25.578Z,26.98
2022-11-16T07:47:57.465Z,30.27
2022-11-16T07:51:04.627Z,27.67
2022-11-16T07:53:33.935Z,31.60
2022-11-16T07:56:01.357Z,34.03
2022-11-16T07:58:32.947Z,34.15
2022-11-16T08:01:08.065Z,34.17
2022-11-16T08:03:36.009Z,29.70
2022-11-16T08:06:13.202Z,34.10
2022-11-16T08:08:43.298Z,29.08
2022-11-16T08:11:12.678Z,37.95
2022-11-16T08:13:41.328Z,33.37
2022-11-16T08:16:19.049Z,32.00
2022-11-16T08:18:48.100Z,29.70
2022-11-16T08:21:17.908Z,27.42
2022-11-16T08:23:46.927Z,33.00
2022-11-16T08:26:17.788Z,30.00
2022-11-16T08:28:50.188Z,27.98
2022-11-16T08:31:21.793Z,28.20
2022-11-16T08:33:52.621Z,24.83
2022-11-16T08:36:20.542Z,28.27
2022-11-16T08:38:50.759Z,31.37
2022-11-16T08:41:20.878Z,26.73
2022-11-16T08:43:48.819Z,30.90
2022-11-16T08:46:15.724Z,27.25
2022-11-16T08:48:46.512Z,25.00
2022-11-16T08:51:17.829Z,26.53
2022-11-16T08:53:55.225Z,26.63
2022-11-16T08:56:22.294Z,22.20
2022-11-16T08:58:53.802Z,17.15
2022-11-16T09:01:26.435Z,16.63
2022-11-16T09:03:53.652Z,17.93
2022-11-16T09:06:21.046Z,17.60
2022-11-16T09:08:47.905Z,19.02
2022-11-16T09:11:17.312Z,21.02
2022-11-16T09:13:45.676Z,20.58
2022-11-16T09:16:12.827Z,23.33
2022-11-16T09:18:39.614Z,20.15
2022-11-16T09:21:06.490Z,25.58
2022-11-16T09:23:33.247Z,30.42
2022-11-16T09:26:05.377Z,24.42
2022-11-16T09:28:32.825Z,21.17
2022-11-16T09:31:02.044Z,23.08
2022-11-16T09:33:30.824Z,24.08
2022-11-16T09:36:02.140Z,22.20
2022-11-16T09:38:40.587Z,21.90
2022-11-16T09:41:15.753Z,22.80
2022-11-16T09:44:02.187Z,23.88
2022-11-16T09:46:36.097Z,25.10
2022-11-16T09:49:17.192Z,22.88
2022-11-16T09:51:49.440Z,20.90
2022-11-16T09:54:20.125Z,20.07
2022-11-16T09:56:51.688Z,20.15
2022-11-16T09:59:25.703Z,21.73
2022-11-16T10:02:05.246Z,21.00
2022-11-16T10:04:40.414Z,23.05
2022-11-16T10:07:18.201Z,22.27
2022-11-16T10:09:46.445Z,21.15
2022-11-16T10:12:41.308Z,21.33
2022-11-16T10:15:31.490Z,21.88
2022-11-16T10:18:24.356Z,16.25
2022-11-16T10:20:59.859Z,19.30
2022-11-16T10:23:46.756Z,15.60
2022-11-16T10:26:58.509Z,17.42
2022-11-16T10:30:02.198Z,16.80
2022-11-16T10:32:32.361Z,17.90
2022-11-16T10:35:03.633Z,16.67
2022-11-16T10:37:37.452Z,15.43
2022-11-16T10:40:16.853Z,16.55
2022-11-16T10:42:46.789Z,15.07
2022-11-16T10:45:19.822Z,18.02
2022-11-16T10:47:53.751Z,18.20
2022-11-16T10:50:49.962Z,17.55
2022-11-16T10:53:46.358Z,17.58
2022-11-16T10:56:18.990Z,17.33
2022-11-16T10:59:06.646Z,16.38
2022-11-16T11:01:45.375Z,15.87
2022-11-16T11:04:27.111Z,15.23
2022-11-16T11:07:30.013Z,15.30
2022-11-16T11:09:56.840Z,15.00
2022-11-16T11:12:25.374Z,16.02
2022-11-16T11:15:10.578Z,14.97
2022-11-16T11:17:39.824Z,16.00
2022-11-16T11:20:17.270Z,16.27
2022-11-16T11:22:53.279Z,15.05
2022-11-16T11:25:25.347Z,15.50
2022-11-16T11:28:19.979Z,14.93
2022-11-16T11:31:17.038Z,17.63
2022-11-16T11:33:51.824Z,15.50
2022-11-16T11:36:25.060Z,16.77
2022-11-16T11:39:21.240Z,14.90
2022-11-16T11:42:14.553Z,16.23
2022-11-16T11:44:44.039Z,17.20
2022-11-16T11:48:01.188Z,15.48
2022-11-16T11:50:33.893Z,16.23
2022-11-16T11:53:34.833Z,15.15
2022-11-16T11:56:01.992Z,14.27
2022-11-16T11:58:35.165Z,15.50
2022-11-16T12:01:22.218Z,16.77
2022-11-16T12:04:28.976Z,14.65
2022-11-16T12:07:32.881Z,16.38
2022-11-16T12:10:03.789Z,15.57
2022-11-16T12:12:55.358Z,17.13
2022-11-16T12:16:19.015Z,20.85
2022-11-16T12:19:19.679Z,20.15
2022-11-16T12:22:17.368Z,21.33
2022-11-16T12:24:49.859Z,18.27
2022-11-16T12:27:35.969Z,18.90
2022-11-16T12:30:16.563Z,18.45
2022-11-16T12:33:00.662Z,18.88
2022-11-16T12:35:45.407Z,17.42
2022-11-16T12:38:39.231Z,16.00
2022-11-16T12:41:08.928Z,18.17
2022-11-16T12:43:54.410Z,17.95
2022-11-16T12:46:44.839Z,17.02
2022-11-16T12:49:50.318Z,19.50
2022-11-16T12:52:52.879Z,16.60
2022-11-16T12:55:28.769Z,17.92
2022-11-16T12:58:04.716Z,16.88
2022-11-16T13:00:53.563Z,15.73
2022-11-16T13:03:29.685Z,16.92
2022-11-16T13:06:06.748Z,17.73
2022-11-16T13:08:58.232Z,16.38
2022-11-16T13:11:55.123Z,13.32
2022-11-16T13:14:33.561Z,12.75
2022-11-16T13:17:02.537Z,13.38
2022-11-16T13:19:30.605Z,11.63
2022-11-16T13:21:57.339Z,11.15
2022-11-16T13:24:59.820Z,13.52
2022-11-16T13:27:32.655Z,9.55
2022-11-16T13:30:18.356Z,10.45
2022-11-16T13:33:27.348Z,7.07
2022-11-16T13:35:54.357Z,10.32
2022-11-16T13:38:51.266Z,9.85
2022-11-16T13:41:38.325Z,9.38
2022-11-16T13:44:33.419Z,9.25
2022-11-16T13:47:05.057Z,11.17
2022-11-16T13:49:41.675Z,10.85
2022-11-16T13:52:40.436Z,8.85
2022-11-16T13:55:13.822Z,11.77
2022-11-16T13:57:52.274Z,10.95
2022-11-16T14:00:23.479Z,9.63
2022-11-16T14:03:10.561Z,10.38
2022-11-16T14:05:40.635Z,11.20
2022-11-16T14:08:30.525Z,12.20
2022-11-16T14:11:01.217Z,10.77
2022-11-16T14:13:40.216Z,10.13
2022-11-16T14:16:30.032Z,9.63
2022-11-16T14:18:59.821Z,9.93
2022-11-16T14:21:46.500Z,10.02
2022-11-16T14:24:38.009Z,10.30
2022-11-16T14:27:31.457Z,11.50
2022-11-16T14:30:24.861Z,11.68
2022-11-16T14:32:55.260Z,9.93
2022-11-16T14:35:40.769Z,12.30
2022-11-16T14:38:36.349Z,13.55
2022-11-16T14:41:06.409Z,10.53
2022-11-16T14:43:42.606Z,10.98
2022-11-16T14:46:35.890Z,10.65
2022-11-16T14:49:03.359Z,9.73
2022-11-16T14:51:43.413Z,11.20
2022-11-16T14:54:27.009Z,11.40
2022-11-16T14:57:06.492Z,11.90
2022-11-16T14:59:33.263Z,10.93
2022-11-16T15:02:12.495Z,11.65
2022-11-16T15:04:39.777Z,11.32
2022-11-16T15:07:07.634Z,11.50
2022-11-16T15:09:37.761Z,12.38
2022-11-16T15:12:11.883Z,11.23
2022-11-16T15:14:46.133Z,12.40
2022-11-16T15:17:19.393Z,13.57
2022-11-16T15:20:15.384Z,10.77
2022-11-16T15:22:45.909Z,10.68
2022-11-16T15:25:28.167Z,11.80
2022-11-16T15:27:57.053Z,11.65
2022-11-16T15:30:33.525Z,10.02
2022-11-16T15:33:10.999Z,12.93
2022-11-16T15:35:38.444Z,12.00
2022-11-16T15:38:28.446Z,10.25
2022-11-16T15:41:01.298Z,11.70
2022-11-16T15:44:01.469Z,13.32
2022-11-16T15:46:33.606Z,11.40
2022-11-16T15:49:01.165Z,10.98
2022-11-16T15:51:28.017Z,11.07
2022-11-16T15:53:55.798Z,11.95
2022-11-16T15:56:25.729Z,12.13
2022-11-16T15:58:58.343Z,13.60
2022-11-16T16:01:25.997Z,12.80
2022-11-16T16:03:57.310Z,12.18
2022-11-16T16:06:58.447Z,11.13
2022-11-16T16:09:28.937Z,12.60
2022-11-16T16:12:14.469Z,14.60
2022-11-16T16:14:41.618Z,14.27
2022-11-16T16:17:10.308Z,15.85
2022-11-16T16:19:41.902Z,14.65
2022-11-16T16:22:26.519Z,11.27
2022-11-16T16:24:53.723Z,11.13
2022-11-16T16:27:26.199Z,10.27
2022-11-16T16:29:55.249Z,12.18
2022-11-16T16:32:32.450Z,11.85
2022-11-16T16:35:01.820Z,18.02
2022-11-16T16:37:31.591Z,14.33
2022-11-16T16:39:58.895Z,13.25
2022-11-16T16:42:25.804Z,13.88
2022-11-16T16:44:53.077Z,12.60
2022-11-16T16:47:20.856Z,12.93
2022-11-16T16:49:51.365Z,13.50
2022-11-16T16:52:18.276Z,12.57
2022-11-16T16:54:46.094Z,13.00
2022-11-16T16:57:18.035Z,12.90
2022-11-16T16:59:46.463Z,12.90
2022-11-16T17:02:14.346Z,13.40
2022-11-16T17:04:41.667Z,12.57
2022-11-16T17:07:08.649Z,12.07
2022-11-16T17:09:37.257Z,12.15
2022-11-16T17:12:05.045Z,12.38
2022-11-16T17:14:32.195Z,11.97
2022-11-16T17:17:02.358Z,13.13
2022-11-16T17:19:30.418Z,10.65
2022-11-16T17:21:57.666Z,11.02
2022-11-16T17:24:25.397Z,11.20
2022-11-16T17:26:53.060Z,11.50
2022-11-16T17:29:20.451Z,11.90
2022-11-16T17:31:48.263Z,11.18
2022-11-16T17:34:17.216Z,11.35
2022-11-16T17:36:44.887Z,12.35
2022-11-16T17:39:12.547Z,13.00
2022-11-16T17:41:40.161Z,14.52
2022-11-16T17:44:08.707Z,15.93
2022-11-16T17:46:37.689Z,14.90
2022-11-16T17:49:05.383Z,13.77
2022-11-16T17:51:40.129Z,14.83
2022-11-16T17:54:07.561Z,11.68
2022-11-16T17:56:36.470Z,10.77
2022-11-16T17:59:04.360Z,11.93
2022-11-16T18:01:31.733Z,10.98
2022-11-16T18:04:01.091Z,12.07
2022-11-16T18:06:28.910Z,9.43
2022-11-16T18:08:57.401Z,8.93
2022-11-16T18:11:28.238Z,7.55
2022-11-16T18:14:01.321Z,7.00
2022-11-16T18:16:32.039Z,8.23
2022-11-16T18:19:06.007Z,8.43
2022-11-16T18:21:41.575Z,8.23
2022-11-16T18:24:10.332Z,7.00
2022-11-16T18:26:39.113Z,8.25
2022-11-16T18:29:08.866Z,6.67
2022-11-16T18:31:36.473Z,6.65
2022-11-16T18:34:04.521Z,5.57
2022-11-16T18:36:32.184Z,5.97
2022-11-16T18:39:00.672Z,7.20
2022-11-16T18:41:29.949Z,4.77
2022-11-16T18:44:02.344Z,5.40
2022-11-16T18:46:32.570Z,5.00
2022-11-16T18:49:01.226Z,4.45
2022-11-16T18:51:30.543Z,4.32
2022-11-16T18:53:58.117Z,4.20
2022-11-16T18:56:26.615Z,4.95
2022-11-16T18:58:54.245Z,3.90
2022-11-16T19:01:25.029Z,3.83
2022-11-16T19:03:55.358Z,4.70
2022-11-16T19:06:24.109Z,3.53
2022-11-16T19:09:08.462Z,3.97
2022-11-16T19:11:46.764Z,3.17
2022-11-16T19:14:18.134Z,4.22
2022-11-16T19:20:08.839Z,3.83
2022-11-16T19:22:37.929Z,4.15
2022-11-16T19:25:06.247Z,4.35
2022-11-16T19:27:35.338Z,3.70
2022-11-16T19:30:03.278Z,3.78
2022-11-16T19:32:32.623Z,3.70
2022-11-16T19:35:00.349Z,3.50
2022-11-16T19:37:29.746Z,3.03
2022-11-16T19:39:57.482Z,3.65
2022-11-16T19:42:29.629Z,5.40
2022-11-16T19:44:57.382Z,4.80
2022-11-16T19:47:25.022Z,4.18
2022-11-16T19:49:53.423Z,4.00
2022-11-16T19:52:20.924Z,4.38
2022-11-16T19:54:48.712Z,4.88
2022-11-16T19:57:49.706Z,4.30
2022-11-16T20:00:22.893Z,4.43
2022-11-16T20:02:50.919Z,3.72
2022-11-16T20:05:18.681Z,3.40
2022-11-16T20:07:46.446Z,3.90
2022-11-16T20:10:14.183Z,4.27
2022-11-16T20:12:41.682Z,3.75
2022-11-16T20:15:09.903Z,5.32
2022-11-16T20:17:37.689Z,2.92
2022-11-16T20:20:05.743Z,4.47
2022-11-16T20:22:33.194Z,4.37
2022-11-16T20:25:00.902Z,4.00
2022-11-16T20:27:28.904Z,3.90
2022-11-16T20:29:56.839Z,4.78
2022-11-16T20:32:24.727Z,4.25
2022-11-16T20:34:52.216Z,5.33
2022-11-16T20:37:19.943Z,4.72
2022-11-16T20:39:48.255Z,4.03
2022-11-16T20:42:15.958Z,4.07
2022-11-16T20:44:44.355Z,4.88
2022-11-16T20:47:13.193Z,3.80
2022-11-16T20:49:41.728Z,3.78
2022-11-16T20:52:09.326Z,4.72
2022-11-16T20:54:36.847Z,4.72
2022-11-16T20:57:04.057Z,3.40
2022-11-16T20:59:32.728Z,3.77
2022-11-16T21:02:00.049Z,4.25
2022-11-16T21:04:27.556Z,4.28
2022-11-16T21:06:54.719Z,3.63
2022-11-16T21:09:21.503Z,4.22
2022-11-16T21:11:49.149Z,4.33
2022-11-16T21:14:16.324Z,5.10
2022-11-16T21:16:44.148Z,3.90
2022-11-16T21:19:12.194Z,4.55
2022-11-16T21:21:39.211Z,4.53
2022-11-16T21:24:07.383Z,4.60
2022-11-16T21:26:35.179Z,5.03
2022-11-16T21:29:02.088Z,4.95
2022-11-16T21:31:31.470Z,4.15
2022-11-16T21:33:59.258Z,3.38
2022-11-16T21:36:28.128Z,4.17
2022-11-16T21:38:56.670Z,3.60
2022-11-16T21:41:25.193Z,4.32
2022-11-16T21:43:51.993Z,4.82
2022-11-16T21:46:24.029Z,4.50
2022-11-16T21:48:51.313Z,3.93
2022-11-16T21:51:20.254Z,5.00
2022-11-16T21:53:47.500Z,3.60
2022-11-16T21:56:17.201Z,4.30
2022-11-16T21:58:44.955Z,4.18
2022-11-16T22:01:13.449Z,4.30
2022-11-16T22:03:40.434Z,3.50
2022-11-16T22:06:11.839Z,4.50
2022-11-16T22:08:39.832Z,3.35
2022-11-16T22:11:09.143Z,4.90
2022-11-16T22:13:37.692Z,3.80
2022-11-16T22:16:09.235Z,3.53
2022-11-16T22:18:36.468Z,3.75
2022-11-16T22:21:04.427Z,3.72
2022-11-16T22:23:32.115Z,4.43
2022-11-16T22:26:03.926Z,4.60
2022-11-16T22:28:32.235Z,4.78
2022-11-16T22:31:03.703Z,5.05
2022-11-16T22:33:30.590Z,5.32
2022-11-16T22:35:57.905Z,4.88
2022-11-16T22:38:24.795Z,5.40
2022-11-16T22:40:52.936Z,4.75
2022-11-16T22:43:21.596Z,4.82
2022-11-16T22:45:48.407Z,4.80
2022-11-16T22:48:15.490Z,5.30
2022-11-16T22:50:42.690Z,4.40
2022-11-16T22:53:10.468Z,4.47
2022-11-16T22:55:38.652Z,4.57
2022-11-16T22:58:06.391Z,5.68
2022-11-16T23:00:38.967Z,3.72
2022-11-16T23:03:06.108Z,4.63
2022-11-16T23:05:32.959Z,3.90
2022-11-16T23:07:59.753Z,4.68
2022-11-16T23:10:26.732Z,4.15
2022-11-16T23:12:54.167Z,4.32
2022-11-16T23:15:20.898Z,3.83
2022-11-16T23:17:47.756Z,4.57
2022-11-16T23:20:17.615Z,4.63
2022-11-16T23:22:45.132Z,5.53
2022-11-16T23:25:12.412Z,4.68
2022-11-16T23:27:57.433Z,5.10
2022-11-16T23:30:24.908Z,5.35
2022-11-16T23:32:51.934Z,4.60
2022-11-16T23:35:18.963Z,5.43
2022-11-16T23:37:53.368Z,5.20
2022-11-16T23:40:21.406Z,4.40
2022-11-16T23:42:48.430Z,5.18
2022-11-16T23:45:15.233Z,4.90
2022-11-16T23:47:42.006Z,5.70
2022-11-16T23:50:09.197Z,5.72
2022-11-16T23:52:37.048Z,5.50
2022-11-16T23:55:04.117Z,5.78
2022-11-16T23:57:30.963Z,5.65
2022-11-16T23:59:57.719Z,5.57
